Aéroclub Cannes UACA

Aéroclub Cannes UACA
UACA
Approuvé A.T.O. EASA – N°FR.ATO.0108

UACA, UNION des aéroclubs
Cannes “Ailes d’Azur”, Nice “Côte d’Azur”, Grasse “St Exupery”, ACCA “Francis Séverac”

Au décollage : pare-brise parfaitement propre, pour votre sécurité, et celle des autres

Pré-vol : examen des pneus afin d'y détecter d'éventuelles traces de freinage excessif

Avant de quitter l'avion, vérifiez que vous n'emportez pas la checklist

Après chaque vol, merci de mettre en place le pare-soleil !

Pensez à remettre en place le cache-pitot à la fin de chaque vol !

Rangement de l'avion au hangar : manoeuvrez prudemment afin d'éviter tout impact


Météo à Cannes:
METAR
LFMD 130600Z AUTO 00000KT CAVOK 04/01 Q1017 TEMPO 25010KT =
LFMD 130200Z 1303/1403 VRB03KT CAVOK TEMPO 1307/1313 25010KT PROB40 TEMPO 1400/1403 BKN010

TAF
LFMD 201400Z 2015/2115 24010KT CAVOK BECMG 2016/2018 36006KT =

SR / SS: 06:56 / 16:34 UTC (LFMD 2023-01-28)